Time;durP1;ratioP1;P1;durP2;ratioP2;P2;SDS_P1;SDS_P2;PMS_P1;PMS_P2;Temp;Humidity;BMP_temperature;BMP_pressure;BME280_temperature;BME280_humidity;BME280_pressure;Samples;Min_cycle;Max_cycle;Signal;HPM_P1;HPM_P2
2021/11/06 00:00:25;;;;;;;21.27;12.65;;;;;;;;;;4940335;28;20034;-61
2021/11/06 00:02:50;;;;;;;19.50;12.05;;;;;;;;;;4951972;28;21369;-61
2021/11/06 00:05:15;;;;;;;15.57;9.20;;;;;;;;;;4941891;28;20125;-61
2021/11/06 00:07:40;;;;;;;17.10;10.32;;;;;;;;;;4937746;28;20110;-61
2021/11/06 00:10:06;;;;;;;26.25;14.00;;;;;;;;;;4937188;28;20024;-61
2021/11/06 00:12:31;;;;;;;25.02;14.50;;;;;;;;;;4942363;29;20028;-61
2021/11/06 00:14:57;;;;;;;28.92;16.05;;;;;;;;;;4947180;28;20153;-61
2021/11/06 00:17:22;;;;;;;37.00;17.83;;;;;;;;;;4939807;28;20568;-61
2021/11/06 00:19:47;;;;;;;28.73;14.02;;;;;;;;;;4946511;28;20568;-61
2021/11/06 00:22:12;;;;;;;23.60;13.27;;;;;;;;;;4943118;28;20486;-62
2021/11/06 00:24:38;;;;;;;32.97;15.68;;;;;;;;;;4946801;28;20027;-61
2021/11/06 00:27:03;;;;;;;27.73;13.57;;;;;;;;;;4937080;28;20098;-62
2021/11/06 00:29:28;;;;;;;21.88;12.30;;;;;;;;;;4946789;28;20081;-61
2021/11/06 00:31:53;;;;;;;23.58;12.77;;;;;;;;;;4936506;28;20039;-61
2021/11/06 00:34:18;;;;;;;19.80;12.15;;;;;;;;;;4942210;28;20027;-62
2021/11/06 00:36:44;;;;;;;25.60;13.68;;;;;;;;;;4943906;28;20027;-61
2021/11/06 00:39:09;;;;;;;25.65;14.15;;;;;;;;;;4940289;28;20413;-61
2021/11/06 00:41:34;;;;;;;27.75;14.05;;;;;;;;;;4943420;28;20655;-62
2021/11/06 00:43:59;;;;;;;30.50;15.25;;;;;;;;;;4936351;29;20619;-61
2021/11/06 00:46:25;;;;;;;26.23;15.43;;;;;;;;;;4945101;28;20122;-61
2021/11/06 00:48:50;;;;;;;37.42;17.23;;;;;;;;;;4945597;28;20085;-61
2021/11/06 00:51:15;;;;;;;30.23;14.88;;;;;;;;;;4935809;28;20043;-61
2021/11/06 00:53:40;;;;;;;31.42;15.30;;;;;;;;;;4944016;29;20240;-61
2021/11/06 00:56:05;;;;;;;27.90;14.93;;;;;;;;;;4941382;28;20253;-61
2021/11/06 00:58:31;;;;;;;28.48;14.65;;;;;;;;;;4947154;28;20082;-62
2021/11/06 01:00:56;;;;;;;22.83;13.75;;;;;;;;;;4945678;28;20122;-61
2021/11/06 01:03:21;;;;;;;27.60;14.43;;;;;;;;;;4941671;28;20028;-61
2021/11/06 01:05:47;;;;;;;24.25;13.77;;;;;;;;;;4940319;28;20039;-61
2021/11/06 01:08:12;;;;;;;22.30;13.23;;;;;;;;;;4944221;29;20038;-61
2021/11/06 01:10:37;;;;;;;25.75;12.68;;;;;;;;;;4946113;28;20042;-61
2021/11/06 01:13:02;;;;;;;19.95;12.40;;;;;;;;;;4942323;28;20039;-61
2021/11/06 01:15:28;;;;;;;21.75;12.10;;;;;;;;;;4941102;28;20051;-61
2021/11/06 01:17:53;;;;;;;20.35;12.18;;;;;;;;;;4937732;29;20042;-61
2021/11/06 01:20:18;;;;;;;22.83;14.30;;;;;;;;;;4945860;28;20053;-61
2021/11/06 01:22:44;;;;;;;26.45;13.18;;;;;;;;;;4946521;28;20113;-61
2021/11/06 01:25:09;;;;;;;28.42;13.13;;;;;;;;;;4939953;28;20130;-61
2021/11/06 01:27:34;;;;;;;23.55;13.43;;;;;;;;;;4946123;28;20038;-61
2021/11/06 01:29:59;;;;;;;18.73;11.07;;;;;;;;;;4944365;28;20031;-60
2021/11/06 01:32:25;;;;;;;28.70;13.25;;;;;;;;;;4935784;28;20032;-60
2021/11/06 01:34:50;;;;;;;22.13;13.55;;;;;;;;;;4939386;28;20027;-60
2021/11/06 01:37:15;;;;;;;22.95;11.60;;;;;;;;;;4939283;28;20054;-60
2021/11/06 01:39:40;;;;;;;24.70;14.32;;;;;;;;;;4940722;28;20176;-60
2021/11/06 01:42:06;;;;;;;25.33;14.45;;;;;;;;;;4938479;28;20039;-61
2021/11/06 01:44:31;;;;;;;25.38;13.85;;;;;;;;;;4945169;28;20031;-61
2021/11/06 01:46:56;;;;;;;20.42;10.48;;;;;;;;;;4947408;28;20585;-61
2021/11/06 01:49:22;;;;;;;24.92;14.38;;;;;;;;;;4942040;29;20036;-61
2021/11/06 01:51:47;;;;;;;24.55;13.73;;;;;;;;;;4949131;28;20130;-61
2021/11/06 01:54:13;;;;;;;28.52;14.90;;;;;;;;;;4942322;28;20034;-61
2021/11/06 01:56:38;;;;;;;29.38;15.00;;;;;;;;;;4937764;28;20105;-61
2021/11/06 01:59:03;;;;;;;24.10;14.63;;;;;;;;;;4944388;28;20457;-61
2021/11/06 02:01:28;;;;;;;27.95;13.40;;;;;;;;;;4940956;28;20414;-61
2021/11/06 02:03:53;;;;;;;35.92;16.75;;;;;;;;;;4947084;29;20035;-60
2021/11/06 02:06:19;;;;;;;30.40;15.90;;;;;;;;;;4937882;28;20039;-60
2021/11/06 02:08:44;;;;;;;18.77;11.23;;;;;;;;;;4943716;29;20462;-60
2021/11/06 02:11:09;;;;;;;34.55;17.55;;;;;;;;;;4945092;28;20415;-60
2021/11/06 02:13:35;;;;;;;28.35;15.35;;;;;;;;;;4940674;28;20471;-60
2021/11/06 02:16:00;;;;;;;23.60;13.48;;;;;;;;;;4944230;28;20734;-60
2021/11/06 02:18:25;;;;;;;22.42;12.48;;;;;;;;;;4943414;29;20055;-61
2021/11/06 02:21:04;;;;;;;21.92;12.25;;;;;;;;;;4939428;28;20058;-60
2021/11/06 02:23:32;;;;;;;20.70;13.07;;;;;;;;;;4943940;28;20026;-61
2021/11/06 02:25:57;;;;;;;28.38;12.98;;;;;;;;;;4947953;28;20039;-61
2021/11/06 02:28:23;;;;;;;28.45;13.23;;;;;;;;;;4946710;28;20046;-61
2021/11/06 02:30:48;;;;;;;23.73;13.73;;;;;;;;;;4947071;28;20044;-61
2021/11/06 02:33:13;;;;;;;25.50;13.88;;;;;;;;;;4945594;28;20130;-61
2021/11/06 02:35:38;;;;;;;25.58;13.70;;;;;;;;;;4945921;28;20035;-61
2021/11/06 02:38:03;;;;;;;26.77;13.23;;;;;;;;;;4942842;28;20035;-60
2021/11/06 02:40:29;;;;;;;25.48;13.68;;;;;;;;;;4943278;28;20058;-60
2021/11/06 02:42:54;;;;;;;23.08;12.75;;;;;;;;;;4943187;29;20066;-61
2021/11/06 02:45:20;;;;;;;28.75;14.40;;;;;;;;;;4943948;28;20034;-61
2021/11/06 02:47:46;;;;;;;27.17;15.10;;;;;;;;;;4945516;29;20031;-60
2021/11/06 02:50:11;;;;;;;25.85;14.88;;;;;;;;;;4947838;28;20352;-61
2021/11/06 02:52:37;;;;;;;26.58;15.07;;;;;;;;;;4947116;28;20050;-61
2021/11/06 02:55:02;;;;;;;26.23;15.30;;;;;;;;;;4935970;28;20059;-61
2021/11/06 02:57:28;;;;;;;32.78;15.43;;;;;;;;;;4940078;28;20031;-61
2021/11/06 02:59:54;;;;;;;32.95;15.57;;;;;;;;;;4948068;29;20130;-61
2021/11/06 03:02:19;;;;;;;29.48;16.15;;;;;;;;;;4945771;28;20541;-60
2021/11/06 03:04:44;;;;;;;29.73;14.70;;;;;;;;;;4936671;29;20083;-61
2021/11/06 03:07:09;;;;;;;28.75;15.93;;;;;;;;;;4942812;28;20333;-60
2021/11/06 03:09:38;;;;;;;29.15;15.80;;;;;;;;;;4949378;28;20037;-61
2021/11/06 03:12:04;;;;;;;32.65;17.15;;;;;;;;;;4943121;28;20051;-60
2021/11/06 03:14:30;;;;;;;30.23;16.58;;;;;;;;;;4938859;28;20150;-61
2021/11/06 03:16:56;;;;;;;29.10;15.50;;;;;;;;;;4942839;28;20036;-61
2021/11/06 03:19:21;;;;;;;21.67;11.45;;;;;;;;;;4946091;28;20067;-60
2021/11/06 03:21:46;;;;;;;31.08;14.40;;;;;;;;;;4943268;28;20127;-61
2021/11/06 03:24:11;;;;;;;28.08;14.55;;;;;;;;;;4938292;28;20055;-61
2021/11/06 03:26:37;;;;;;;31.90;16.75;;;;;;;;;;4947221;28;20465;-61
2021/11/06 03:29:02;;;;;;;33.45;16.30;;;;;;;;;;4947175;28;20458;-61
2021/11/06 03:31:27;;;;;;;31.27;17.30;;;;;;;;;;4938577;28;20043;-61
2021/11/06 03:33:52;;;;;;;37.55;16.95;;;;;;;;;;4935424;28;20049;-61
2021/11/06 03:36:18;;;;;;;30.80;14.90;;;;;;;;;;4943569;28;20343;-61
2021/11/06 03:38:43;;;;;;;25.58;13.00;;;;;;;;;;4945593;28;20541;-61
2021/11/06 03:41:08;;;;;;;25.70;13.35;;;;;;;;;;4939165;28;20405;-61
2021/11/06 03:43:33;;;;;;;27.00;14.38;;;;;;;;;;4944607;28;20035;-61
2021/11/06 03:45:59;;;;;;;29.83;15.00;;;;;;;;;;4941643;28;20098;-62
2021/11/06 03:48:24;;;;;;;28.35;14.27;;;;;;;;;;4945034;28;20401;-60
2021/11/06 03:50:49;;;;;;;37.13;15.65;;;;;;;;;;4947126;28;20469;-60
2021/11/06 03:53:14;;;;;;;34.20;15.93;;;;;;;;;;4947683;28;20457;-61
2021/11/06 03:55:39;;;;;;;31.48;15.45;;;;;;;;;;4943974;28;20693;-60
2021/11/06 03:58:05;;;;;;;38.55;14.38;;;;;;;;;;4931760;29;20474;-62
2021/11/06 04:00:30;;;;;;;42.33;10.77;;;;;;;;;;4946881;28;20109;-62
2021/11/06 04:02:55;;;;;;;80.30;13.68;;;;;;;;;;4950886;28;20216;-61
2021/11/06 04:05:20;;;;;;;33.22;14.73;;;;;;;;;;4945911;28;20604;-60
2021/11/06 04:07:45;;;;;;;34.75;13.98;;;;;;;;;;4939890;28;20028;-61
2021/11/06 04:10:11;;;;;;;36.60;15.85;;;;;;;;;;4941635;28;20058;-60
2021/11/06 04:12:36;;;;;;;38.90;17.35;;;;;;;;;;4943833;28;20478;-63
2021/11/06 04:15:02;;;;;;;36.35;16.05;;;;;;;;;;4939032;28;20047;-61
2021/11/06 04:17:27;;;;;;;44.65;18.23;;;;;;;;;;4942276;28;20538;-60
2021/11/06 04:19:53;;;;;;;31.58;13.77;;;;;;;;;;4945333;28;20118;-65
2021/11/06 04:22:18;;;;;;;37.65;16.98;;;;;;;;;;4946815;28;20062;-60
2021/11/06 04:24:43;;;;;;;33.92;17.30;;;;;;;;;;4941632;28;20019;-62
2021/11/06 04:27:08;;;;;;;35.53;16.33;;;;;;;;;;4940510;28;20047;-62
2021/11/06 04:29:35;;;;;;;33.10;15.20;;;;;;;;;;4941209;28;20028;-62
2021/11/06 04:32:00;;;;;;;27.20;14.45;;;;;;;;;;4942016;28;20047;-61
2021/11/06 04:34:26;;;;;;;34.90;12.77;;;;;;;;;;4946898;28;20622;-62
2021/11/06 04:36:51;;;;;;;60.97;12.77;;;;;;;;;;4945888;28;20046;-62
2021/11/06 04:39:16;;;;;;;100.80;12.55;;;;;;;;;;4940068;29;20040;-62
2021/11/06 04:41:41;;;;;;;150.52;14.60;;;;;;;;;;4935460;28;20081;-62
2021/11/06 04:44:07;;;;;;;84.30;10.85;;;;;;;;;;4941585;28;20028;-62
2021/11/06 04:46:32;;;;;;;154.50;14.73;;;;;;;;;;4945440;28;20517;-60
2021/11/06 04:48:57;;;;;;;157.98;14.95;;;;;;;;;;4934817;29;20082;-60
2021/11/06 04:51:22;;;;;;;92.75;14.45;;;;;;;;;;4939089;28;20138;-60
2021/11/06 04:53:47;;;;;;;65.00;11.38;;;;;;;;;;4943467;28;20157;-60
2021/11/06 04:56:13;;;;;;;60.45;12.32;;;;;;;;;;4949579;28;20126;-60
2021/11/06 04:58:38;;;;;;;35.65;9.27;;;;;;;;;;4938641;28;20699;-61
2021/11/06 05:01:03;;;;;;;28.92;8.55;;;;;;;;;;4939019;28;20135;-62
2021/11/06 05:03:29;;;;;;;55.97;16.23;;;;;;;;;;4946266;28;20034;-62
2021/11/06 05:05:54;;;;;;;46.63;15.05;;;;;;;;;;4943831;28;20035;-62
2021/11/06 05:08:19;;;;;;;32.83;9.57;;;;;;;;;;4945741;28;20041;-62
2021/11/06 05:10:44;;;;;;;50.65;14.75;;;;;;;;;;4939636;28;20433;-62
2021/11/06 05:13:10;;;;;;;46.55;12.90;;;;;;;;;;4942268;28;20047;-62
2021/11/06 05:15:35;;;;;;;47.47;16.17;;;;;;;;;;4946219;28;20412;-62
2021/11/06 05:18:00;;;;;;;37.05;12.10;;;;;;;;;;4940653;29;20043;-62
2021/11/06 05:20:25;;;;;;;27.17;11.43;;;;;;;;;;4936999;28;20462;-63
2021/11/06 05:22:51;;;;;;;33.25;12.40;;;;;;;;;;4947023;28;20019;-62
2021/11/06 05:25:16;;;;;;;31.90;12.38;;;;;;;;;;4939949;28;20023;-62
2021/11/06 05:27:41;;;;;;;28.55;10.00;;;;;;;;;;4943344;28;20031;-62
2021/11/06 05:30:07;;;;;;;20.85;7.93;;;;;;;;;;4937108;28;20031;-62
2021/11/06 05:32:33;;;;;;;32.67;10.77;;;;;;;;;;4947512;29;20482;-62
2021/11/06 05:34:58;;;;;;;21.73;8.18;;;;;;;;;;4955471;28;20031;-62
2021/11/06 05:37:23;;;;;;;43.03;13.85;;;;;;;;;;4948357;28;20498;-62
2021/11/06 05:39:49;;;;;;;21.23;8.93;;;;;;;;;;4944501;28;20458;-62
2021/11/06 05:42:14;;;;;;;38.35;13.43;;;;;;;;;;4949271;28;20040;-62
2021/11/06 05:44:39;;;;;;;35.40;12.65;;;;;;;;;;4942965;28;20019;-62
2021/11/06 05:47:04;;;;;;;37.15;10.02;;;;;;;;;;4947072;28;20089;-62
2021/11/06 05:49:30;;;;;;;23.95;8.23;;;;;;;;;;4948332;28;20046;-62
2021/11/06 05:51:55;;;;;;;25.75;9.85;;;;;;;;;;4948401;28;20039;-62
2021/11/06 05:54:20;;;;;;;33.55;12.02;;;;;;;;;;4938939;29;20098;-62
2021/11/06 05:56:45;;;;;;;34.53;12.90;;;;;;;;;;4942353;28;20054;-62
2021/11/06 05:59:11;;;;;;;50.80;15.95;;;;;;;;;;4938906;29;20488;-62
2021/11/06 06:01:36;;;;;;;61.05;11.02;;;;;;;;;;4946074;28;20039;-62
2021/11/06 06:04:01;;;;;;;50.38;12.68;;;;;;;;;;4941371;28;20051;-62
2021/11/06 06:06:27;;;;;;;166.23;13.73;;;;;;;;;;4943782;28;20039;-62
2021/11/06 06:08:52;;;;;;;66.00;7.40;;;;;;;;;;4947044;28;20038;-62
2021/11/06 06:11:17;;;;;;;318.38;17.83;;;;;;;;;;4955934;28;20135;-62
2021/11/06 06:13:43;;;;;;;158.50;12.57;;;;;;;;;;4941425;29;20474;-60
2021/11/06 06:16:08;;;;;;;165.02;14.85;;;;;;;;;;4936772;28;20051;-62
2021/11/06 06:18:33;;;;;;;33.25;10.75;;;;;;;;;;4941340;28;20147;-63
2021/11/06 06:20:58;;;;;;;56.72;16.85;;;;;;;;;;4942572;28;20142;-61
2021/11/06 06:23:24;;;;;;;23.35;8.40;;;;;;;;;;4945377;28;20026;-61
2021/11/06 06:25:49;;;;;;;38.00;14.50;;;;;;;;;;4942428;28;20090;-61
2021/11/06 06:28:15;;;;;;;58.08;18.55;;;;;;;;;;4945089;28;20086;-61
2021/11/06 06:30:40;;;;;;;59.88;19.17;;;;;;;;;;4945281;28;20123;-61
2021/11/06 06:33:05;;;;;;;51.58;18.38;;;;;;;;;;4944021;28;20031;-61
2021/11/06 06:35:30;;;;;;;55.60;18.27;;;;;;;;;;4944138;28;20047;-61
2021/11/06 06:37:57;;;;;;;49.63;17.60;;;;;;;;;;4943192;29;20035;-62
2021/11/06 06:40:22;;;;;;;56.17;20.10;;;;;;;;;;4946050;28;20066;-61
2021/11/06 06:42:48;;;;;;;61.28;18.98;;;;;;;;;;4942164;29;20773;-61
2021/11/06 06:45:13;;;;;;;59.70;20.55;;;;;;;;;;4938335;28;20031;-62
2021/11/06 06:47:38;;;;;;;42.70;14.07;;;;;;;;;;4947098;29;20035;-61
2021/11/06 06:50:03;;;;;;;51.08;19.42;;;;;;;;;;4945463;28;20067;-62
2021/11/06 06:52:29;;;;;;;54.88;19.98;;;;;;;;;;4959462;28;20019;-62
2021/11/06 06:54:54;;;;;;;52.47;18.60;;;;;;;;;;4946308;28;20034;-62
2021/11/06 06:57:19;;;;;;;40.20;16.42;;;;;;;;;;4945917;28;20261;-62
2021/11/06 06:59:44;;;;;;;57.92;20.58;;;;;;;;;;4945802;28;20203;-61
2021/11/06 07:02:10;;;;;;;52.15;18.35;;;;;;;;;;4943872;28;20035;-62
2021/11/06 07:04:35;;;;;;;52.67;19.17;;;;;;;;;;4941298;29;20035;-61
2021/11/06 07:07:00;;;;;;;56.42;19.70;;;;;;;;;;4931872;29;20050;-62
2021/11/06 07:09:25;;;;;;;56.90;20.33;;;;;;;;;;4948914;28;20028;-62
2021/11/06 07:11:51;;;;;;;56.78;19.85;;;;;;;;;;4947624;28;20379;-61
2021/11/06 07:14:16;;;;;;;43.10;18.27;;;;;;;;;;4938792;28;20585;-61
2021/11/06 07:16:45;;;;;;;57.10;20.15;;;;;;;;;;4939081;28;20059;-61
2021/11/06 07:19:10;;;;;;;48.00;19.35;;;;;;;;;;4941409;28;20394;-61
2021/11/06 07:21:35;;;;;;;45.72;18.92;;;;;;;;;;4943636;28;20126;-62
2021/11/06 07:24:01;;;;;;;47.85;18.10;;;;;;;;;;4947670;28;20045;-62
2021/11/06 07:26:26;;;;;;;45.88;17.42;;;;;;;;;;4944532;28;20036;-62
2021/11/06 07:28:51;;;;;;;45.78;17.88;;;;;;;;;;4941640;28;20028;-62
2021/11/06 07:31:16;;;;;;;34.45;16.13;;;;;;;;;;4943404;28;20075;-62
2021/11/06 07:33:42;;;;;;;29.05;15.63;;;;;;;;;;4945086;28;20478;-62
2021/11/06 07:36:07;;;;;;;27.05;14.30;;;;;;;;;;4945757;28;20521;-62
2021/11/06 07:38:32;;;;;;;29.13;13.93;;;;;;;;;;4943680;28;20113;-61
2021/11/06 07:40:58;;;;;;;20.92;12.52;;;;;;;;;;4942253;28;20048;-61
2021/11/06 07:43:23;;;;;;;18.65;12.07;;;;;;;;;;4944888;28;20582;-61
2021/11/06 07:45:48;;;;;;;19.05;11.40;;;;;;;;;;4946813;28;20070;-62
2021/11/06 07:48:14;;;;;;;21.65;11.80;;;;;;;;;;4947190;28;20081;-61
2021/11/06 07:50:39;;;;;;;20.60;11.75;;;;;;;;;;4943352;28;20335;-61
2021/11/06 07:53:04;;;;;;;21.17;11.68;;;;;;;;;;4938970;29;20474;-63
2021/11/06 07:55:29;;;;;;;18.15;11.25;;;;;;;;;;4943302;28;20039;-63
2021/11/06 07:57:55;;;;;;;17.73;10.77;;;;;;;;;;4935628;28;20066;-63
2021/11/06 08:00:20;;;;;;;21.20;11.18;;;;;;;;;;4940365;28;20054;-63
2021/11/06 08:02:45;;;;;;;16.10;10.25;;;;;;;;;;4949311;28;20019;-62
2021/11/06 08:05:12;;;;;;;15.52;9.57;;;;;;;;;;4940618;28;20039;-63
2021/11/06 08:07:37;;;;;;;18.52;9.65;;;;;;;;;;4935400;28;20015;-61
2021/11/06 08:10:03;;;;;;;17.02;10.20;;;;;;;;;;4938820;28;20027;-62
2021/11/06 08:12:29;;;;;;;13.75;9.52;;;;;;;;;;4954504;28;20042;-63
2021/11/06 08:14:54;;;;;;;16.13;9.65;;;;;;;;;;4939485;28;20078;-63
2021/11/06 08:17:20;;;;;;;16.88;9.38;;;;;;;;;;4943982;28;20089;-61
2021/11/06 08:19:45;;;;;;;14.32;9.15;;;;;;;;;;4942755;28;20030;-62
2021/11/06 08:22:10;;;;;;;17.33;10.85;;;;;;;;;;4936697;28;20132;-61
2021/11/06 08:24:36;;;;;;;17.30;9.95;;;;;;;;;;4939583;28;20110;-63
2021/11/06 08:27:01;;;;;;;17.73;10.05;;;;;;;;;;4939717;28;20131;-61
2021/11/06 08:29:26;;;;;;;18.92;11.02;;;;;;;;;;4946702;28;20553;-62
2021/11/06 08:31:55;;;;;;;20.10;9.93;;;;;;;;;;4943088;28;20059;-62
2021/11/06 08:34:20;;;;;;;19.50;9.30;;;;;;;;;;4936758;28;20035;-62
2021/11/06 08:36:45;;;;;;;15.45;8.73;;;;;;;;;;4946233;28;20039;-62
2021/11/06 08:39:11;;;;;;;14.93;9.10;;;;;;;;;;4939948;28;20050;-60
2021/11/06 08:41:37;;;;;;;16.65;9.98;;;;;;;;;;4938947;28;20027;-63
2021/11/06 08:44:02;;;;;;;13.88;8.80;;;;;;;;;;4946160;28;20034;-63
2021/11/06 08:46:27;;;;;;;15.40;9.32;;;;;;;;;;4926843;29;20541;-63
2021/11/06 08:48:53;;;;;;;16.35;8.95;;;;;;;;;;4940352;28;20074;-65
2021/11/06 08:51:18;;;;;;;12.73;8.40;;;;;;;;;;4944444;28;20031;-66
2021/11/06 08:53:47;;;;;;;15.25;8.65;;;;;;;;;;4941390;28;20456;-64
2021/11/06 08:56:12;;;;;;;14.23;8.63;;;;;;;;;;4938947;28;20039;-63
2021/11/06 08:58:38;;;;;;;18.00;9.65;;;;;;;;;;4945916;28;20046;-64
2021/11/06 09:01:03;;;;;;;14.95;9.43;;;;;;;;;;4942714;28;20043;-65
2021/11/06 09:03:28;;;;;;;17.08;9.13;;;;;;;;;;4933823;28;20023;-63
2021/11/06 09:05:54;;;;;;;15.95;9.35;;;;;;;;;;4938785;28;20327;-64
2021/11/06 09:08:28;;;;;;;16.55;9.48;;;;;;;;;;4940392;28;20086;-63
2021/11/06 09:10:55;;;;;;;15.50;9.45;;;;;;;;;;4937672;28;20043;-63
2021/11/06 09:13:20;;;;;;;17.60;10.38;;;;;;;;;;4943757;29;20110;-63
2021/11/06 09:15:45;;;;;;;15.43;9.75;;;;;;;;;;4937229;28;20126;-63
2021/11/06 09:18:11;;;;;;;13.00;9.73;;;;;;;;;;4940558;29;20077;-63
2021/11/06 09:20:37;;;;;;;19.20;10.63;;;;;;;;;;4940606;28;20032;-63
2021/11/06 09:23:02;;;;;;;21.23;11.30;;;;;;;;;;4941513;28;20031;-64
2021/11/06 09:25:27;;;;;;;16.90;10.38;;;;;;;;;;4946098;28;20040;-62
2021/11/06 09:27:52;;;;;;;19.98;10.55;;;;;;;;;;4945341;28;20566;-61
2021/11/06 09:30:18;;;;;;;17.45;11.32;;;;;;;;;;4937507;28;20477;-62
2021/11/06 09:32:43;;;;;;;19.17;10.32;;;;;;;;;;4939181;28;20020;-61
2021/11/06 09:35:09;;;;;;;19.13;10.82;;;;;;;;;;4937683;28;20644;-62
2021/11/06 09:37:34;;;;;;;15.23;9.75;;;;;;;;;;4944723;28;20039;-62
2021/11/06 09:40:00;;;;;;;21.35;11.15;;;;;;;;;;4944972;28;20062;-62
2021/11/06 09:42:25;;;;;;;18.35;11.13;;;;;;;;;;4942913;28;20035;-62
2021/11/06 09:44:50;;;;;;;17.58;10.73;;;;;;;;;;4942245;29;20786;-62
2021/11/06 09:47:16;;;;;;;22.88;12.02;;;;;;;;;;4940540;28;20495;-61
2021/11/06 09:49:41;;;;;;;20.90;11.63;;;;;;;;;;4943425;28;20035;-63
2021/11/06 09:52:06;;;;;;;14.32;9.13;;;;;;;;;;4942291;28;20045;-62
2021/11/06 09:54:32;;;;;;;21.40;12.18;;;;;;;;;;4941625;28;20079;-62
2021/11/06 09:56:57;;;;;;;25.45;11.20;;;;;;;;;;4942014;28;20036;-62
2021/11/06 09:59:22;;;;;;;22.80;13.02;;;;;;;;;;4944831;28;20046;-62
2021/11/06 10:01:48;;;;;;;20.25;11.57;;;;;;;;;;4941841;28;20031;-62
2021/11/06 10:04:13;;;;;;;19.05;11.80;;;;;;;;;;4943568;29;20027;-61
2021/11/06 10:06:44;;;;;;;20.05;11.63;;;;;;;;;;4942768;28;20098;-62
2021/11/06 10:09:10;;;;;;;20.98;11.32;;;;;;;;;;4941985;28;20023;-62
2021/11/06 10:11:36;;;;;;;19.08;10.63;;;;;;;;;;4944227;28;20399;-61
2021/11/06 10:14:01;;;;;;;22.70;11.45;;;;;;;;;;4941073;29;20027;-62
2021/11/06 10:16:30;;;;;;;18.15;10.48;;;;;;;;;;4946626;28;20498;-69
2021/11/06 10:19:05;;;;;;;20.25;11.63;;;;;;;;;;4947823;28;20039;-62
2021/11/06 10:21:31;;;;;;;17.60;10.13;;;;;;;;;;4940909;28;20043;-62
2021/11/06 10:23:57;;;;;;;22.02;11.80;;;;;;;;;;4942608;28;20359;-62
2021/11/06 10:26:22;;;;;;;17.95;11.40;;;;;;;;;;4946841;28;20071;-62
2021/11/06 10:28:48;;;;;;;21.80;10.02;;;;;;;;;;4946857;28;20059;-62
2021/11/06 10:31:13;;;;;;;19.52;11.18;;;;;;;;;;4947564;28;20039;-62
2021/11/06 10:33:47;;;;;;;20.98;10.65;;;;;;;;;;4944538;28;20027;-67
2021/11/06 10:36:16;;;;;;;18.55;10.48;;;;;;;;;;4946504;28;20125;-62
2021/11/06 10:38:41;;;;;;;18.83;11.00;;;;;;;;;;4947084;28;20043;-62
2021/11/06 10:41:08;;;;;;;16.75;11.32;;;;;;;;;;4946306;28;20038;-62
2021/11/06 10:43:35;;;;;;;17.10;10.95;;;;;;;;;;4944280;29;20501;-61
2021/11/06 10:46:01;;;;;;;12.30;8.95;;;;;;;;;;4946827;28;20041;-61
2021/11/06 10:48:30;;;;;;;21.90;11.35;;;;;;;;;;4946632;29;20031;-65
2021/11/06 10:50:56;;;;;;;18.00;10.70;;;;;;;;;;4946091;28;20137;-62
2021/11/06 10:53:30;;;;;;;17.40;10.70;;;;;;;;;;4945905;28;22013;-62
2021/11/06 10:55:55;;;;;;;16.00;9.88;;;;;;;;;;4942982;28;21017;-61
2021/11/06 10:58:24;;;;;;;16.23;10.45;;;;;;;;;;4946444;28;20039;-62
2021/11/06 11:00:50;;;;;;;17.05;9.52;;;;;;;;;;4939752;28;20141;-62
2021/11/06 11:03:42;;;;;;;20.20;9.73;;;;;;;;;;4940555;28;20023;-62
2021/11/06 11:06:10;;;;;;;16.95;9.18;;;;;;;;;;4940572;28;20564;-62
2021/11/06 11:08:54;;;;;;;13.52;8.88;;;;;;;;;;4948097;28;20027;-62
2021/11/06 11:11:21;;;;;;;16.88;9.10;;;;;;;;;;4947474;28;20031;-62
2021/11/06 11:13:50;;;;;;;20.15;9.10;;;;;;;;;;4940752;28;20060;-62
2021/11/06 11:16:16;;;;;;;18.52;9.25;;;;;;;;;;4940288;28;20046;-62
2021/11/06 11:18:41;;;;;;;14.60;8.93;;;;;;;;;;4944087;28;20563;-62
2021/11/06 11:21:26;;;;;;;13.25;8.45;;;;;;;;;;4938216;28;20047;-62
2021/11/06 11:23:55;;;;;;;18.35;9.43;;;;;;;;;;4942549;29;20031;-62
2021/11/06 11:26:22;;;;;;;14.93;8.40;;;;;;;;;;4940188;28;20043;-62
2021/11/06 11:28:48;;;;;;;16.40;8.60;;;;;;;;;;4946650;28;20023;-63
2021/11/06 11:31:13;;;;;;;13.00;8.70;;;;;;;;;;4943556;28;20426;-62
2021/11/06 11:33:39;;;;;;;12.13;7.72;;;;;;;;;;4941941;29;20024;-64
2021/11/06 11:36:05;;;;;;;13.95;7.57;;;;;;;;;;4943187;28;20110;-62
2021/11/06 11:38:30;;;;;;;14.65;8.00;;;;;;;;;;4947368;28;20162;-62
2021/11/06 11:41:06;;;;;;;19.88;7.22;;;;;;;;;;4942008;28;20032;-62
2021/11/06 11:43:34;;;;;;;12.57;7.05;;;;;;;;;;4944764;29;20027;-62
2021/11/06 11:46:08;;;;;;;14.60;7.00;;;;;;;;;;4944697;28;20451;-62
2021/11/06 11:48:33;;;;;;;11.00;7.05;;;;;;;;;;4942307;29;20779;-63
2021/11/06 11:50:58;;;;;;;11.75;6.72;;;;;;;;;;4938268;28;20043;-62
2021/11/06 11:53:25;;;;;;;13.48;6.88;;;;;;;;;;4941107;28;20497;-61
2021/11/06 11:55:51;;;;;;;13.18;6.82;;;;;;;;;;4946975;28;20032;-62
2021/11/06 11:58:21;;;;;;;11.98;6.30;;;;;;;;;;4944913;28;20065;-61
2021/11/06 12:00:54;;;;;;;11.75;6.43;;;;;;;;;;4934207;28;20035;-61
2021/11/06 12:03:46;;;;;;;12.10;5.82;;;;;;;;;;4937788;28;20151;-62
2021/11/06 12:06:33;;;;;;;11.75;6.32;;;;;;;;;;4944367;28;20039;-63
2021/11/06 12:09:11;;;;;;;7.30;4.47;;;;;;;;;;4941641;28;20023;-62
2021/11/06 12:11:42;;;;;;;11.07;5.80;;;;;;;;;;4938134;28;20542;-62
2021/11/06 12:14:16;;;;;;;11.05;5.45;;;;;;;;;;4939229;28;20024;-62
2021/11/06 12:16:43;;;;;;;14.82;5.40;;;;;;;;;;4942072;28;20047;-62
2021/11/06 12:19:08;;;;;;;8.07;4.50;;;;;;;;;;4944409;28;20035;-63
2021/11/06 12:21:40;;;;;;;9.52;5.00;;;;;;;;;;4946355;28;20488;-63
2021/11/06 12:24:09;;;;;;;10.52;4.93;;;;;;;;;;4943377;28;20058;-63
2021/11/06 12:26:44;;;;;;;9.70;5.47;;;;;;;;;;4935402;28;20037;-63
2021/11/06 12:29:09;;;;;;;10.02;4.68;;;;;;;;;;4937603;28;20173;-62
2021/11/06 12:31:38;;;;;;;8.93;4.95;;;;;;;;;;4938167;28;20161;-62
2021/11/06 12:34:04;;;;;;;11.40;4.43;;;;;;;;;;4933822;29;20150;-62
2021/11/06 12:36:29;;;;;;;13.35;4.20;;;;;;;;;;4944159;28;20134;-63
2021/11/06 12:39:01;;;;;;;10.80;4.50;;;;;;;;;;4944456;28;20031;-62
2021/11/06 12:41:27;;;;;;;6.00;3.88;;;;;;;;;;4942838;28;20040;-62
2021/11/06 12:43:53;;;;;;;6.85;4.13;;;;;;;;;;4944963;28;20055;-63
2021/11/06 12:46:23;;;;;;;9.80;3.80;;;;;;;;;;4940805;28;20031;-63
2021/11/06 12:48:49;;;;;;;10.45;4.20;;;;;;;;;;4944251;29;20031;-63
2021/11/06 12:51:15;;;;;;;12.00;4.57;;;;;;;;;;4945743;28;20445;-63
2021/11/06 12:53:41;;;;;;;6.90;3.33;;;;;;;;;;4946039;28;20031;-62
2021/11/06 12:56:08;;;;;;;8.48;3.33;;;;;;;;;;4944537;28;20039;-63
2021/11/06 12:58:34;;;;;;;8.80;3.60;;;;;;;;;;4933366;28;20070;-63
2021/11/06 13:01:17;;;;;;;6.75;2.92;;;;;;;;;;4941444;28;20063;-63
2021/11/06 13:03:43;;;;;;;4.97;2.72;;;;;;;;;;4942765;28;20023;-63
2021/11/06 13:06:20;;;;;;;7.75;2.97;;;;;;;;;;4945822;28;20031;-63
2021/11/06 13:09:04;;;;;;;8.38;3.33;;;;;;;;;;4935243;28;20028;-63
2021/11/06 13:11:45;;;;;;;4.60;2.60;;;;;;;;;;4938525;28;20036;-62
2021/11/06 13:14:10;;;;;;;;;;;;;;;;;;4938645;29;20245;-62
2021/11/06 13:16:37;;;;;;;5.10;2.83;;;;;;;;;;4942581;28;20026;-63
2021/11/06 13:19:03;;;;;;;7.78;2.97;;;;;;;;;;4942683;28;20043;-63
2021/11/06 13:21:28;;;;;;;6.03;3.55;;;;;;;;;;4945361;28;20476;-62
2021/11/06 13:23:54;;;;;;;5.38;2.70;;;;;;;;;;4933316;28;20154;-63
2021/11/06 13:26:20;;;;;;;7.82;3.35;;;;;;;;;;4938187;28;20028;-62
2021/11/06 13:28:45;;;;;;;7.80;2.95;;;;;;;;;;4939930;28;20027;-62
2021/11/06 13:31:10;;;;;;;6.20;2.90;;;;;;;;;;4941085;28;20035;-62
2021/11/06 13:33:35;;;;;;;5.45;2.60;;;;;;;;;;4946664;28;20157;-62
2021/11/06 13:36:07;;;;;;;8.90;3.83;;;;;;;;;;4942400;28;20051;-63
2021/11/06 13:38:33;;;;;;;6.75;2.75;;;;;;;;;;4943377;28;20498;-62
2021/11/06 13:40:59;;;;;;;7.32;2.95;;;;;;;;;;4953314;28;20051;-62
2021/11/06 13:43:25;;;;;;;6.03;2.70;;;;;;;;;;4946895;28;20020;-63
2021/11/06 13:46:00;;;;;;;9.65;3.15;;;;;;;;;;4943385;28;20127;-62
2021/11/06 13:48:26;;;;;;;4.85;2.60;;;;;;;;;;4946734;29;20043;-63
2021/11/06 13:50:51;;;;;;;8.82;3.08;;;;;;;;;;4938155;28;20048;-62
2021/11/06 13:53:23;;;;;;;6.55;2.72;;;;;;;;;;4947251;28;20098;-62
2021/11/06 13:55:55;;;;;;;5.05;2.42;;;;;;;;;;4945731;28;20125;-63
2021/11/06 13:58:25;;;;;;;7.68;2.88;;;;;;;;;;4945282;28;20810;-63
2021/11/06 14:00:50;;;;;;;5.72;2.80;;;;;;;;;;4950747;28;20153;-63
2021/11/06 14:03:15;;;;;;;6.07;3.03;;;;;;;;;;4945547;28;20462;-62
2021/11/06 14:05:40;;;;;;;5.00;2.50;;;;;;;;;;4944075;28;20411;-62
2021/11/06 14:08:08;;;;;;;7.85;3.10;;;;;;;;;;4941809;29;20463;-62
2021/11/06 14:10:33;;;;;;;7.65;3.10;;;;;;;;;;4943436;28;20059;-64
2021/11/06 14:13:11;;;;;;;5.35;2.90;;;;;;;;;;4945785;28;20069;-63
2021/11/06 14:15:42;;;;;;;10.88;3.42;;;;;;;;;;4945715;28;20055;-62
2021/11/06 14:18:11;;;;;;;7.90;2.92;;;;;;;;;;4945101;28;20035;-62